createdAt,value
2018-08-24T00:03:58.454Z,9.43
2018-08-24T00:10:03.121Z,8.90
2018-08-24T00:16:07.718Z,11.53
2018-08-24T00:22:12.326Z,11.67
2018-08-24T00:28:16.921Z,10.63
2018-08-24T00:34:21.553Z,11.37
2018-08-24T00:40:26.165Z,12.90
2018-08-24T00:46:30.754Z,13.60
2018-08-24T00:52:35.361Z,14.90
2018-08-24T00:58:40.342Z,14.57
2018-08-24T01:04:44.937Z,15.00
2018-08-24T01:10:49.533Z,14.50
2018-08-24T01:16:59.133Z,14.60
2018-08-24T01:23:03.708Z,13.40
2018-08-24T01:29:08.340Z,14.80
2018-08-24T01:35:12.950Z,12.80
2018-08-24T01:41:17.599Z,12.97
2018-08-24T01:47:22.176Z,14.80
2018-08-24T01:53:26.762Z,14.63
2018-08-24T01:59:31.392Z,16.10
2018-08-24T02:05:35.991Z,17.30
2018-08-24T02:11:40.663Z,18.27
2018-08-24T02:17:50.197Z,15.93
2018-08-24T02:23:54.802Z,13.57
2018-08-24T02:29:59.416Z,15.13
2018-08-24T02:36:04.001Z,16.57
2018-08-24T02:42:08.590Z,16.30
2018-08-24T02:48:13.192Z,15.80
2018-08-24T02:54:17.779Z,16.23
2018-08-24T03:00:22.402Z,16.33
2018-08-24T03:06:26.986Z,17.00
2018-08-24T03:12:31.601Z,16.00
2018-08-24T03:18:36.171Z,17.43
2018-08-24T03:24:40.738Z,18.27
2018-08-24T03:30:45.325Z,18.30
2018-08-24T03:36:49.974Z,18.27
2018-08-24T03:42:54.564Z,17.37
2018-08-24T03:48:59.172Z,16.40
2018-08-24T03:55:03.771Z,18.10
2018-08-24T04:01:08.366Z,17.83
2018-08-24T04:07:12.954Z,18.60
2018-08-24T04:13:17.538Z,17.10
2018-08-24T04:19:28.449Z,16.23
2018-08-24T04:25:33.055Z,18.70
2018-08-24T04:31:37.683Z,18.10
2018-08-24T04:37:42.290Z,17.20
2018-08-24T04:43:46.993Z,18.30
2018-08-24T04:49:51.906Z,17.43
2018-08-24T04:55:56.493Z,15.13
2018-08-24T05:02:01.073Z,14.10
2018-08-24T05:08:05.781Z,11.90
2018-08-24T05:14:11.111Z,11.43
2018-08-24T05:20:15.708Z,12.43
2018-08-24T05:26:20.280Z,13.60
2018-08-24T05:32:24.855Z,12.23
2018-08-24T05:38:29.474Z,11.50
2018-08-24T05:44:34.060Z,9.13
2018-08-24T05:50:38.629Z,10.77
2018-08-24T05:56:43.207Z,9.23
2018-08-24T06:02:48.093Z,10.30
2018-08-24T06:09:26.194Z,10.00
2018-08-24T06:15:30.791Z,7.27
2018-08-24T06:21:35.357Z,8.47
2018-08-24T06:27:39.922Z,7.40
2018-08-24T06:33:44.526Z,8.10
2018-08-24T06:39:49.161Z,9.60
2018-08-24T06:45:53.722Z,7.50
2018-08-24T06:51:58.294Z,5.93
2018-08-24T06:58:02.854Z,7.60
2018-08-24T07:04:07.391Z,7.40
2018-08-24T07:10:11.967Z,7.17
2018-08-24T07:16:16.654Z,7.73
2018-08-24T07:22:21.206Z,7.57
2018-08-24T07:28:25.828Z,9.40
2018-08-24T07:34:30.402Z,9.87
2018-08-24T07:40:35.337Z,11.17
2018-08-24T07:46:40.282Z,14.10
2018-08-24T07:52:44.829Z,14.97
2018-08-24T07:58:49.404Z,15.47
2018-08-24T08:04:54.335Z,17.37
2018-08-24T08:10:58.922Z,15.20
2018-08-24T08:17:03.824Z,18.57
2018-08-24T08:23:08.442Z,19.17
2018-08-24T08:29:17.084Z,15.80
2018-08-24T08:35:21.681Z,15.93
2018-08-24T08:41:27.101Z,15.03
2018-08-24T08:47:31.752Z,12.83
2018-08-24T08:53:36.367Z,13.30
2018-08-24T08:59:40.960Z,12.07
2018-08-24T09:05:45.562Z,13.00
2018-08-24T09:11:50.166Z,13.67
2018-08-24T09:18:00.026Z,14.50
2018-08-24T09:25:08.548Z,16.80
2018-08-24T09:31:18.239Z,16.70
2018-08-24T09:37:28.137Z,18.07
2018-08-24T09:43:37.862Z,19.30
2018-08-24T09:49:42.554Z,20.10
2018-08-24T09:55:47.159Z,20.57
2018-08-24T10:01:56.964Z,20.83
2018-08-24T10:08:06.872Z,17.27
2018-08-24T10:14:11.897Z,15.93
2018-08-24T10:20:16.482Z,16.60
2018-08-24T10:26:21.124Z,15.70
2018-08-24T10:32:25.708Z,13.63
2018-08-24T10:38:30.447Z,12.60
2018-08-24T10:44:35.096Z,12.13
2018-08-24T10:50:39.747Z,9.00
2018-08-24T10:56:44.354Z,9.97
2018-08-24T11:02:48.943Z,8.50
2018-08-24T11:08:53.571Z,6.90
2018-08-24T11:14:58.295Z,9.03
2018-08-24T11:21:02.911Z,7.23
2018-08-24T11:27:07.535Z,7.23
2018-08-24T11:33:12.199Z,8.40
2018-08-24T11:39:16.790Z,8.07
2018-08-24T11:45:21.425Z,6.80
2018-08-24T11:51:25.989Z,5.80
2018-08-24T11:57:30.605Z,6.00
2018-08-24T12:03:35.177Z,5.97
2018-08-24T12:09:39.779Z,4.77
2018-08-24T12:15:44.366Z,6.13
2018-08-24T12:21:48.937Z,5.80
2018-08-24T12:27:53.548Z,6.17
2018-08-24T12:33:58.191Z,4.77
2018-08-24T12:40:02.789Z,5.77
2018-08-24T12:46:08.186Z,6.47
2018-08-24T12:52:12.917Z,5.37
2018-08-24T12:58:17.409Z,6.60
2018-08-24T13:04:22.010Z,5.37
2018-08-24T13:10:26.620Z,4.90
2018-08-24T13:16:31.265Z,4.23
2018-08-24T13:22:35.873Z,4.80
2018-08-24T13:28:40.472Z,4.50
2018-08-24T13:34:45.034Z,4.77
2018-08-24T13:40:49.632Z,4.20
2018-08-24T13:46:54.276Z,3.83
2018-08-24T13:52:58.865Z,3.70
2018-08-24T13:59:03.506Z,3.30
2018-08-24T14:05:08.099Z,3.53
2018-08-24T14:11:12.695Z,3.27
2018-08-24T14:17:17.275Z,3.40
2018-08-24T14:23:21.930Z,3.10
2018-08-24T14:29:26.521Z,3.30
2018-08-24T14:35:31.341Z,3.47
2018-08-24T14:41:35.952Z,3.20
2018-08-24T14:47:40.607Z,3.63
2018-08-24T14:53:45.209Z,3.13
2018-08-24T14:59:49.833Z,2.77
2018-08-24T15:05:57.700Z,2.87
2018-08-24T15:12:02.321Z,3.60
2018-08-24T15:18:06.993Z,3.00
2018-08-24T15:24:11.607Z,3.13
2018-08-24T15:30:16.310Z,1.93
2018-08-24T15:36:20.971Z,1.90
2018-08-24T15:42:25.866Z,1.60
2018-08-24T15:48:30.525Z,2.00
2018-08-24T15:54:35.269Z,1.53
2018-08-24T16:00:39.913Z,1.20
2018-08-24T16:06:44.550Z,1.30
2018-08-24T16:12:49.527Z,1.20
2018-08-24T16:18:54.870Z,1.70
2018-08-24T16:24:59.916Z,1.40
2018-08-24T16:31:04.935Z,1.47
2018-08-24T16:37:10.018Z,1.50
2018-08-24T16:43:15.608Z,1.70
2018-08-24T16:49:20.605Z,1.20
2018-08-24T16:55:25.589Z,1.47
2018-08-24T17:01:30.621Z,1.23
2018-08-24T17:07:35.637Z,2.07
2018-08-24T17:13:40.696Z,1.70
2018-08-24T17:19:46.508Z,1.50
2018-08-24T17:25:51.517Z,1.30
2018-08-24T17:31:56.247Z,1.67
2018-08-24T17:38:01.507Z,2.07
2018-08-24T17:44:06.423Z,1.80
2018-08-24T17:50:12.032Z,1.50
2018-08-24T17:56:17.006Z,1.70
2018-08-24T18:02:22.044Z,2.17
2018-08-24T18:08:27.087Z,1.43
2018-08-24T18:14:32.196Z,1.70
2018-08-24T18:20:37.237Z,1.70
2018-08-24T18:26:42.165Z,1.67
2018-08-24T18:32:47.174Z,1.97
2018-08-24T18:38:52.144Z,1.50
2018-08-24T18:44:57.109Z,1.57
2018-08-24T18:51:02.095Z,1.67
2018-08-24T18:57:07.086Z,2.00
2018-08-24T19:03:11.850Z,2.17
2018-08-24T19:09:16.438Z,1.87
2018-08-24T19:15:21.109Z,1.60
2018-08-24T19:21:30.890Z,1.53
2018-08-24T19:27:40.565Z,1.80
2018-08-24T19:33:45.249Z,1.70
2018-08-24T19:39:55.078Z,1.93
2018-08-24T19:45:59.742Z,2.17
2018-08-24T19:52:04.381Z,1.50
2018-08-24T19:58:14.296Z,1.60
2018-08-24T20:04:18.979Z,1.70
2018-08-24T20:10:23.620Z,2.13
2018-08-24T20:16:33.374Z,1.50
2018-08-24T20:22:38.059Z,1.90
2018-08-24T20:28:42.734Z,1.67
2018-08-24T20:34:48.687Z,2.17
2018-08-24T20:40:53.548Z,1.60
2018-08-24T20:46:59.079Z,1.93
2018-08-24T20:53:04.041Z,1.70
2018-08-24T20:59:08.706Z,1.20
2018-08-24T21:05:13.357Z,1.60
2018-08-24T21:11:18.079Z,2.17
2018-08-24T21:17:22.699Z,2.40
2018-08-24T21:23:27.314Z,1.80
2018-08-24T21:29:31.953Z,1.67
2018-08-24T21:35:36.579Z,1.80
2018-08-24T21:41:41.837Z,1.60
2018-08-24T21:47:46.635Z,1.67
2018-08-24T21:53:51.377Z,1.20
2018-08-24T21:59:56.032Z,2.60
2018-08-24T22:06:00.669Z,1.90
2018-08-24T22:12:05.340Z,1.30
2018-08-24T22:18:09.996Z,1.33
2018-08-24T22:24:14.589Z,1.57
2018-08-24T22:30:19.325Z,1.53
2018-08-24T22:36:23.994Z,1.57
2018-08-24T22:42:28.675Z,1.90
2018-08-24T22:48:33.808Z,1.63
2018-08-24T22:54:38.398Z,1.40
2018-08-24T23:00:43.212Z,1.30
2018-08-24T23:06:47.903Z,1.40
2018-08-24T23:12:52.518Z,2.10
2018-08-24T23:18:57.179Z,2.03
2018-08-24T23:25:01.794Z,1.10
2018-08-24T23:31:06.894Z,1.50
2018-08-24T23:37:11.485Z,1.10
2018-08-24T23:43:16.144Z,1.77
2018-08-24T23:49:20.798Z,1.77
2018-08-24T23:55:25.429Z,1.70
